Time;durP1;ratioP1;P1;durP2;ratioP2;P2;SDS_P1;SDS_P2;PMS_P1;PMS_P2;Temp;Humidity;BMP_temperature;BMP_pressure;BME280_temperature;BME280_humidity;BME280_pressure;Samples;Min_cycle;Max_cycle;Signal;HPM_P1;HPM_P2
2021/12/10 00:02:03;;;;;;;53.00;26.37;;;3.80;99.90;;;;;;5007043;28;20628;-75
2021/12/10 00:04:34;;;;;;;50.80;27.30;;;3.70;99.90;;;;;;5008265;28;20616;-75
2021/12/10 00:07:07;;;;;;;53.57;27.50;;;3.60;99.90;;;;;;5021377;28;20640;-74
2021/12/10 00:09:42;;;;;;;54.03;27.93;;;3.60;99.90;;;;;;5006202;28;20739;-74
2021/12/10 00:12:18;;;;;;;50.93;27.40;;;3.70;99.90;;;;;;5008778;28;20644;-75
2021/12/10 00:14:47;;;;;;;47.43;26.37;;;3.70;99.90;;;;;;5009062;28;20604;-75
2021/12/10 00:17:22;;;;;;;51.73;27.07;;;3.60;99.90;;;;;;5006193;28;20667;-74
2021/12/10 00:19:51;;;;;;;47.57;27.77;;;3.60;99.90;;;;;;5014625;28;21244;-75
2021/12/10 00:22:42;;;;;;;50.60;27.87;;;3.60;99.90;;;;;;5006048;28;20655;-74
2021/12/10 00:25:15;;;;;;;53.70;28.23;;;3.60;99.90;;;;;;5010132;28;20741;-73
2021/12/10 00:27:42;;;;;;;57.77;28.20;;;3.60;99.90;;;;;;5004108;28;20659;-74
2021/12/10 00:30:25;;;;;;;50.97;27.17;;;3.60;99.90;;;;;;5014580;28;20659;-74
2021/12/10 00:33:11;;;;;;;48.93;27.37;;;3.60;99.90;;;;;;4999461;28;24104;-74
2021/12/10 00:35:40;;;;;;;54.70;27.70;;;3.60;99.90;;;;;;5022606;28;20664;-75
2021/12/10 00:38:09;;;;;;;51.97;28.50;;;3.70;99.90;;;;;;5007079;28;20631;-75
2021/12/10 00:40:40;;;;;;;53.43;28.60;;;3.70;99.90;;;;;;5007384;28;20722;-75
2021/12/10 00:43:09;;;;;;;60.43;30.13;;;3.60;99.90;;;;;;5018709;28;20992;-75
2021/12/10 00:45:34;;;;;;;59.97;29.53;;;3.60;99.90;;;;;;5012152;28;20620;-75
2021/12/10 00:48:01;;;;;;;57.63;29.77;;;3.50;99.90;;;;;;5004557;28;20694;-74
2021/12/10 00:50:31;;;;;;;53.10;27.03;;;3.60;99.90;;;;;;5004522;28;20213;-75
2021/12/10 00:52:57;;;;;;;55.87;29.13;;;3.60;99.90;;;;;;5008191;28;20593;-74
2021/12/10 00:55:29;;;;;;;49.47;26.87;;;3.70;99.90;;;;;;5007459;28;20608;-74
2021/12/10 00:57:58;;;;;;;56.33;28.13;;;3.70;99.90;;;;;;5002880;28;20990;-75
2021/12/10 01:00:33;;;;;;;57.40;29.33;;;3.50;99.90;;;;;;5003073;28;20684;-75
2021/12/10 01:02:59;;;;;;;55.57;29.03;;;3.60;99.90;;;;;;5003355;28;20694;-74
2021/12/10 01:05:27;;;;;;;54.90;28.20;;;3.50;99.90;;;;;;5004920;28;20596;-75
2021/12/10 01:07:53;;;;;;;50.20;27.27;;;3.40;99.90;;;;;;5023356;28;20978;-74
2021/12/10 01:10:30;;;;;;;51.33;28.33;;;3.50;99.90;;;;;;5004479;28;20648;-74
2021/12/10 01:12:59;;;;;;;51.20;28.03;;;3.50;99.90;;;;;;5004383;28;20275;-74
2021/12/10 01:15:48;;;;;;;54.70;26.73;;;3.60;99.90;;;;;;5005948;28;20605;-74
2021/12/10 01:24:30;;;;;;;58.73;28.10;;;3.50;99.90;;;;;;5010110;28;20632;-74
2021/12/10 01:27:00;;;;;;;46.77;24.73;;;3.50;99.90;;;;;;5004742;28;20647;-74
2021/12/10 01:29:38;;;;;;;52.83;27.60;;;3.60;99.90;;;;;;5005970;28;20658;-75
2021/12/10 01:32:08;;;;;;;57.27;27.30;;;3.60;99.90;;;;;;5005322;28;20743;-74
2021/12/10 01:34:36;;;;;;;50.40;27.10;;;3.50;99.90;;;;;;4998808;28;21082;-74
2021/12/10 01:37:04;;;;;;;62.27;28.40;;;3.60;99.90;;;;;;5011101;28;21017;-75
2021/12/10 01:39:34;;;;;;;58.27;28.87;;;3.60;99.90;;;;;;5004184;28;20647;-74
2021/12/10 01:42:14;;;;;;;52.77;29.20;;;3.70;99.90;;;;;;5007774;28;20679;-74
2021/12/10 01:44:43;;;;;;;51.83;27.93;;;3.70;99.90;;;;;;5015402;28;20656;-75
2021/12/10 01:47:11;;;;;;;53.43;27.00;;;3.70;99.90;;;;;;5007773;28;20682;-75
2021/12/10 01:49:37;;;;;;;52.33;26.60;;;3.70;99.90;;;;;;5002932;28;20656;-75
2021/12/10 01:52:05;;;;;;;50.23;24.83;;;3.70;99.90;;;;;;5005310;28;21147;-74
2021/12/10 01:54:41;;;;;;;51.67;26.97;;;3.70;99.90;;;;;;5005428;28;20616;-75
2021/12/10 01:57:09;;;;;;;49.50;26.53;;;3.70;99.90;;;;;;5005347;28;20648;-74
2021/12/10 01:59:37;;;;;;;55.80;28.20;;;3.80;99.90;;;;;;5018438;28;20660;-75
2021/12/10 02:02:12;;;;;;;54.67;27.60;;;3.70;99.90;;;;;;4996290;28;20671;-74
2021/12/10 02:04:44;;;;;;;53.43;28.53;;;3.70;99.90;;;;;;5003349;28;21169;-74
2021/12/10 02:07:11;;;;;;;48.23;26.23;;;3.70;99.90;;;;;;5001300;28;20942;-75
2021/12/10 02:09:37;;;;;;;49.63;27.20;;;3.80;99.90;;;;;;5019819;28;20658;-74
2021/12/10 02:12:08;;;;;;;52.93;25.50;;;3.80;99.90;;;;;;5004990;28;20623;-75
2021/12/10 02:14:36;;;;;;;53.97;28.00;;;3.80;99.90;;;;;;5002466;28;20662;-75
2021/12/10 02:17:05;;;;;;;48.43;26.27;;;3.80;99.90;;;;;;5002340;28;20798;-74
2021/12/10 02:19:32;;;;;;;52.80;27.60;;;3.80;99.90;;;;;;5020619;28;20640;-75
2021/12/10 02:21:59;;;;;;;50.80;27.67;;;3.80;99.90;;;;;;5006149;28;20617;-74
2021/12/10 02:24:27;;;;;;;49.13;26.57;;;3.70;99.90;;;;;;5005639;28;20738;-75
2021/12/10 02:26:57;;;;;;;48.10;27.03;;;3.70;99.90;;;;;;5006081;28;20667;-74
2021/12/10 02:29:29;;;;;;;53.13;27.40;;;3.80;99.90;;;;;;5001509;28;21012;-73
2021/12/10 02:31:57;;;;;;;50.33;26.83;;;3.80;99.90;;;;;;5020054;28;21293;-74
2021/12/10 02:34:23;;;;;;;53.37;28.90;;;3.80;99.90;;;;;;4999196;28;20630;-73
2021/12/10 02:36:50;;;;;;;53.23;27.80;;;3.70;99.90;;;;;;5009100;28;20648;-74
2021/12/10 02:39:19;;;;;;;53.30;29.83;;;3.70;99.90;;;;;;5004597;28;20664;-75
2021/12/10 02:41:45;;;;;;;47.67;27.57;;;3.70;99.90;;;;;;5015868;28;20738;-75
2021/12/10 02:44:16;;;;;;;46.80;26.10;;;3.70;99.90;;;;;;5002867;28;20611;-74
2021/12/10 02:46:42;;;;;;;53.50;26.90;;;3.70;99.90;;;;;;5000157;28;20663;-74
2021/12/10 02:49:12;;;;;;;49.63;27.30;;;3.70;99.90;;;;;;4999259;28;20677;-74
2021/12/10 02:51:39;;;;;;;56.83;28.00;;;3.70;99.90;;;;;;5002532;28;20247;-75
2021/12/10 02:54:10;;;;;;;47.67;27.47;;;3.70;99.90;;;;;;5001699;28;20651;-75
2021/12/10 02:56:37;;;;;;;52.97;27.33;;;3.70;99.90;;;;;;5004564;28;20717;-74
2021/12/10 02:59:05;;;;;;;46.90;24.90;;;3.70;99.90;;;;;;5020753;28;20654;-75
2021/12/10 03:01:45;;;;;;;48.57;26.83;;;3.60;99.90;;;;;;5037798;28;20690;-75
2021/12/10 03:04:13;;;;;;;52.33;27.73;;;3.60;99.90;;;;;;5019003;28;20745;-74
2021/12/10 03:06:52;;;;;;;54.07;28.27;;;3.60;99.90;;;;;;5018055;28;20646;-74
2021/12/10 03:09:20;;;;;;;52.67;26.00;;;3.60;99.90;;;;;;5020976;28;20643;-75
2021/12/10 03:11:52;;;;;;;50.57;27.13;;;3.60;99.90;;;;;;5021292;28;20631;-75
2021/12/10 03:14:31;;;;;;;51.13;26.80;;;3.60;99.90;;;;;;5038613;28;20635;-75
2021/12/10 03:17:00;;;;;;;47.93;25.27;;;3.60;99.90;;;;;;5028889;28;20679;-74
2021/12/10 03:19:28;;;;;;;48.13;25.80;;;3.70;99.90;;;;;;5005169;28;20657;-74
2021/12/10 03:21:56;;;;;;;48.07;25.47;;;3.70;99.90;;;;;;5007705;28;20634;-74
2021/12/10 03:24:26;;;;;;;49.00;25.13;;;3.70;99.90;;;;;;5006904;28;20608;-74
2021/12/10 03:26:53;;;;;;;49.87;26.20;;;3.70;99.90;;;;;;5005305;28;20652;-74
2021/12/10 03:29:27;;;;;;;44.43;25.20;;;3.70;99.90;;;;;;5004953;28;20679;-74
2021/12/10 03:31:58;;;;;;;51.07;24.83;;;3.70;99.90;;;;;;5011730;28;21328;-75
2021/12/10 03:34:32;;;;;;;51.83;26.37;;;3.80;99.90;;;;;;5012335;28;20648;-75
2021/12/10 03:36:59;;;;;;;43.97;24.63;;;3.80;99.90;;;;;;5005774;28;20651;-75
2021/12/10 03:39:28;;;;;;;50.53;26.33;;;3.70;99.90;;;;;;5011569;28;20704;-74
2021/12/10 03:41:57;;;;;;;47.43;24.83;;;3.60;99.90;;;;;;5005225;28;21198;-73
2021/12/10 03:44:28;;;;;;;46.00;26.27;;;3.60;99.90;;;;;;5017516;28;20658;-74
2021/12/10 03:46:57;;;;;;;52.07;25.70;;;3.70;99.90;;;;;;5001901;28;20705;-75
2021/12/10 03:49:26;;;;;;;42.73;24.20;;;3.70;99.90;;;;;;4998775;28;21063;-74
2021/12/10 03:51:52;;;;;;;46.87;24.23;;;3.70;99.90;;;;;;5006246;28;20698;-75
2021/12/10 03:54:18;;;;;;;43.47;23.57;;;3.70;99.90;;;;;;5003343;28;21741;-75
2021/12/10 03:56:50;;;;;;;53.03;24.23;;;3.80;99.90;;;;;;5019384;28;20726;-74
2021/12/10 03:59:21;;;;;;;43.23;23.07;;;3.80;99.90;;;;;;5001167;28;20672;-75
2021/12/10 04:01:50;;;;;;;39.97;23.20;;;3.70;99.90;;;;;;4999122;28;20631;-74
2021/12/10 04:04:38;;;;;;;44.63;25.17;;;3.80;99.90;;;;;;5018018;28;20636;-74
2021/12/10 04:07:08;;;;;;;45.10;24.57;;;3.80;99.90;;;;;;5006647;28;20632;-74
2021/12/10 04:09:33;;;;;;;49.20;24.77;;;3.80;99.90;;;;;;5021992;28;20844;-74
2021/12/10 04:12:03;;;;;;;41.73;22.53;;;3.70;99.90;;;;;;5010500;28;21051;-75
2021/12/10 04:14:28;;;;;;;42.63;23.60;;;3.70;99.90;;;;;;5006786;28;20189;-74
2021/12/10 04:16:56;;;;;;;45.10;25.27;;;3.70;99.90;;;;;;5012817;28;20694;-74
2021/12/10 04:19:25;;;;;;;40.30;22.17;;;3.70;99.90;;;;;;5006741;28;20605;-74
2021/12/10 04:21:59;;;;;;;40.83;24.20;;;3.70;99.90;;;;;;5006583;28;21170;-75
2021/12/10 04:24:29;;;;;;;42.63;23.77;;;3.80;99.90;;;;;;5012715;28;20722;-74
2021/12/10 04:26:59;;;;;;;44.00;22.97;;;3.80;99.90;;;;;;5020872;28;20654;-74
2021/12/10 04:29:25;;;;;;;42.13;22.30;;;3.80;99.90;;;;;;5006787;28;20690;-75
2021/12/10 04:31:53;;;;;;;38.13;23.27;;;3.80;99.90;;;;;;5004854;28;20624;-75
2021/12/10 04:34:25;;;;;;;40.50;22.23;;;3.90;99.90;;;;;;5008631;28;20197;-75
2021/12/10 04:36:53;;;;;;;48.30;23.20;;;3.80;99.90;;;;;;5007519;28;20668;-75
2021/12/10 04:39:19;;;;;;;47.27;23.47;;;3.90;99.90;;;;;;5007299;28;20683;-75
2021/12/10 04:41:50;;;;;;;44.97;23.40;;;3.80;99.90;;;;;;5014475;28;20648;-75
2021/12/10 04:44:15;;;;;;;43.67;22.57;;;3.80;99.90;;;;;;5013059;28;20213;-75
2021/12/10 04:46:41;;;;;;;45.20;24.00;;;3.90;99.90;;;;;;5020158;28;20655;-74
2021/12/10 04:49:14;;;;;;;39.10;21.23;;;3.80;99.90;;;;;;5005547;28;20258;-74
2021/12/10 04:51:46;;;;;;;40.47;21.93;;;3.80;99.90;;;;;;5007701;28;20194;-75
2021/12/10 04:54:13;;;;;;;36.57;22.10;;;3.80;99.90;;;;;;5008079;28;20624;-74
2021/12/10 04:56:40;;;;;;;39.83;22.27;;;3.90;99.90;;;;;;5007787;28;20659;-74
2021/12/10 04:59:08;;;;;;;41.83;23.13;;;3.90;99.90;;;;;;5014369;28;20668;-74
2021/12/10 05:01:34;;;;;;;44.07;23.80;;;3.80;99.90;;;;;;5002580;28;21167;-75
2021/12/10 05:04:01;;;;;;;42.87;20.30;;;3.80;99.90;;;;;;4997967;28;20629;-75
2021/12/10 05:06:27;;;;;;;44.83;22.53;;;3.80;99.90;;;;;;5005625;28;21011;-74
2021/12/10 05:08:53;;;;;;;35.30;21.73;;;3.90;99.90;;;;;;5001848;28;20660;-74
2021/12/10 05:11:18;;;;;;;41.70;22.83;;;3.90;99.90;;;;;;5007485;28;20662;-73
2021/12/10 05:13:46;;;;;;;39.07;22.47;;;3.90;99.90;;;;;;5013360;28;20209;-75
2021/12/10 05:16:12;;;;;;;42.07;22.20;;;3.80;99.90;;;;;;5005753;28;20236;-74
2021/12/10 05:18:43;;;;;;;40.50;23.40;;;3.80;99.90;;;;;;5005556;28;20650;-74
2021/12/10 05:21:18;;;;;;;40.90;21.90;;;3.80;99.90;;;;;;5008489;28;20608;-75
2021/12/10 05:23:46;;;;;;;36.60;22.23;;;3.80;99.90;;;;;;5007468;28;20622;-74
2021/12/10 05:26:12;;;;;;;40.50;23.93;;;3.80;99.90;;;;;;5021167;28;20627;-75
2021/12/10 05:28:38;;;;;;;40.57;21.17;;;3.80;99.90;;;;;;5005919;28;21316;-75
2021/12/10 05:31:06;;;;;;;36.97;21.63;;;3.80;99.90;;;;;;5012677;28;20178;-75
2021/12/10 05:33:35;;;;;;;40.60;21.40;;;3.80;99.90;;;;;;5012317;28;20970;-73
2021/12/10 05:36:01;;;;;;;38.03;21.10;;;3.80;99.90;;;;;;5004697;28;20743;-74
2021/12/10 05:38:29;;;;;;;39.77;20.50;;;3.80;99.90;;;;;;5002643;28;20600;-74
2021/12/10 05:40:59;;;;;;;37.47;20.13;;;3.80;99.90;;;;;;4997153;28;20620;-74
2021/12/10 05:43:25;;;;;;;39.93;21.90;;;3.80;99.90;;;;;;5004297;28;21058;-75
2021/12/10 05:45:52;;;;;;;40.47;22.07;;;3.80;99.90;;;;;;5004760;28;20643;-75
2021/12/10 05:48:19;;;;;;;36.73;20.67;;;3.80;99.90;;;;;;5000665;28;20608;-75
2021/12/10 05:50:48;;;;;;;39.00;20.80;;;3.90;99.90;;;;;;5000710;28;20647;-75
2021/12/10 05:53:14;;;;;;;40.53;22.53;;;3.80;99.90;;;;;;5003037;28;21107;-73
2021/12/10 05:55:44;;;;;;;42.47;21.73;;;3.80;99.90;;;;;;5001740;28;20699;-74
2021/12/10 05:58:10;;;;;;;41.37;21.73;;;3.80;99.90;;;;;;5004104;28;21152;-74
2021/12/10 06:00:40;;;;;;;36.60;22.57;;;3.80;99.90;;;;;;5015444;28;20652;-75
2021/12/10 06:03:08;;;;;;;39.73;22.10;;;3.80;99.90;;;;;;5001183;28;20623;-75
2021/12/10 06:05:39;;;;;;;33.97;21.17;;;3.80;99.90;;;;;;5017930;28;20656;-75
2021/12/10 06:08:06;;;;;;;39.13;21.57;;;3.80;99.90;;;;;;5020035;28;21203;-74
2021/12/10 06:10:33;;;;;;;34.37;20.27;;;3.80;99.90;;;;;;5000288;28;20710;-74
2021/12/10 06:13:06;;;;;;;32.77;20.70;;;3.80;99.90;;;;;;4993247;28;20616;-74
2021/12/10 06:15:32;;;;;;;38.70;20.50;;;3.70;99.90;;;;;;5002521;28;20940;-75
2021/12/10 06:17:58;;;;;;;40.07;20.97;;;3.70;99.90;;;;;;4997519;28;20624;-75
2021/12/10 06:20:33;;;;;;;35.17;20.23;;;3.70;99.90;;;;;;4994818;28;20702;-75
2021/12/10 06:22:59;;;;;;;34.63;20.20;;;3.70;99.90;;;;;;4991419;28;20670;-74
2021/12/10 06:25:28;;;;;;;39.80;21.80;;;3.50;99.90;;;;;;4989468;28;21673;-73
2021/12/10 06:27:57;;;;;;;36.37;21.23;;;3.60;99.90;;;;;;4985750;28;20656;-73
2021/12/10 06:30:31;;;;;;;43.20;23.60;;;3.60;99.90;;;;;;4992364;28;20694;-74
2021/12/10 06:32:58;;;;;;;40.50;21.47;;;3.30;99.90;;;;;;4990475;28;20603;-74
2021/12/10 06:35:27;;;;;;;38.67;21.87;;;3.40;99.90;;;;;;4996073;28;20624;-75
2021/12/10 06:37:53;;;;;;;41.30;20.17;;;3.40;99.90;;;;;;4992722;28;20642;-74
2021/12/10 06:40:23;;;;;;;42.50;22.03;;;3.40;99.90;;;;;;4993219;28;20648;-74
2021/12/10 06:42:50;;;;;;;39.70;20.83;;;3.40;99.90;;;;;;4995148;28;20608;-75
2021/12/10 06:45:19;;;;;;;40.63;22.47;;;3.50;99.90;;;;;;4995130;28;20691;-75
2021/12/10 06:47:50;;;;;;;34.47;19.40;;;3.50;99.90;;;;;;4999959;28;20647;-74
2021/12/10 06:50:18;;;;;;;39.80;20.13;;;3.40;99.90;;;;;;5008746;28;21215;-73
2021/12/10 06:52:44;;;;;;;39.53;21.90;;;3.50;99.90;;;;;;5005996;28;20672;-74
2021/12/10 06:55:11;;;;;;;37.17;20.90;;;3.40;99.90;;;;;;5007167;28;20608;-74
2021/12/10 06:57:37;;;;;;;41.13;21.40;;;3.50;99.90;;;;;;5004782;28;20655;-74
2021/12/10 07:00:16;;;;;;;38.43;21.40;;;3.50;99.90;;;;;;5003845;28;20642;-74
2021/12/10 07:02:44;;;;;;;44.50;22.23;;;3.50;99.90;;;;;;5007461;28;20616;-74
2021/12/10 07:05:10;;;;;;;37.67;20.70;;;3.50;99.90;;;;;;5003056;28;20631;-74
2021/12/10 07:07:38;;;;;;;38.10;21.00;;;3.50;99.90;;;;;;4987859;28;21065;-74
2021/12/10 07:10:05;;;;;;;43.67;22.67;;;3.50;99.90;;;;;;5000579;28;20216;-76
2021/12/10 07:12:33;;;;;;;40.60;22.13;;;3.50;99.90;;;;;;5007308;28;20620;-74
2021/12/10 07:15:01;;;;;;;38.37;21.50;;;3.50;99.90;;;;;;5004382;28;20652;-74
2021/12/10 07:17:27;;;;;;;38.77;21.37;;;3.50;99.90;;;;;;5004957;28;20656;-74
2021/12/10 07:19:52;;;;;;;43.60;22.03;;;3.50;99.90;;;;;;5004528;28;20717;-74
2021/12/10 07:22:18;;;;;;;43.73;22.00;;;3.50;99.90;;;;;;5001111;28;20628;-74
2021/12/10 07:24:44;;;;;;;40.07;21.07;;;3.50;99.90;;;;;;5007242;28;20259;-74
2021/12/10 07:27:11;;;;;;;38.43;20.30;;;3.50;99.90;;;;;;5004529;28;20244;-74
2021/12/10 07:29:41;;;;;;;42.13;21.17;;;3.50;99.90;;;;;;5009722;28;20244;-74
2021/12/10 07:32:07;;;;;;;42.60;21.90;;;3.50;99.90;;;;;;5009236;28;20616;-74
2021/12/10 07:34:33;;;;;;;41.33;21.87;;;3.50;99.90;;;;;;5010131;28;20634;-74
2021/12/10 07:36:59;;;;;;;41.60;22.60;;;3.50;99.90;;;;;;5007183;28;20652;-74
2021/12/10 07:39:24;;;;;;;40.70;21.50;;;3.50;99.90;;;;;;5003753;28;20829;-74
2021/12/10 07:41:50;;;;;;;37.67;22.27;;;3.50;99.90;;;;;;5007801;28;20184;-75
2021/12/10 07:44:16;;;;;;;36.43;22.17;;;3.50;99.90;;;;;;5005281;28;20262;-74
2021/12/10 07:46:42;;;;;;;38.00;21.27;;;3.60;99.90;;;;;;5006662;28;20217;-74
2021/12/10 07:49:15;;;;;;;38.33;22.27;;;3.60;99.90;;;;;;5008952;28;20213;-74
2021/12/10 07:51:47;;;;;;;39.67;20.47;;;3.60;99.90;;;;;;5023542;28;20639;-74
2021/12/10 07:54:13;;;;;;;42.37;21.20;;;3.60;99.90;;;;;;5006955;28;21081;-74
2021/12/10 07:56:38;;;;;;;44.60;21.30;;;3.60;99.90;;;;;;5003489;28;20679;-74
2021/12/10 07:59:05;;;;;;;39.53;21.37;;;3.60;99.90;;;;;;5008508;28;20852;-75
2021/12/10 08:01:32;;;;;;;38.57;20.80;;;3.60;99.90;;;;;;5006726;28;20204;-73
2021/12/10 08:04:00;;;;;;;40.30;21.60;;;3.60;99.90;;;;;;5008089;28;20628;-74
2021/12/10 08:06:28;;;;;;;41.30;22.00;;;3.60;99.90;;;;;;5001503;28;20644;-73
2021/12/10 08:08:54;;;;;;;38.07;21.00;;;3.60;99.90;;;;;;4998929;28;20659;-72
2021/12/10 08:11:21;;;;;;;38.00;23.27;;;3.60;99.90;;;;;;4996683;28;20641;-74
2021/12/10 08:13:48;;;;;;;42.27;22.07;;;3.60;99.90;;;;;;4992517;28;20665;-74
2021/12/10 08:16:15;;;;;;;35.73;20.13;;;3.60;99.90;;;;;;4994881;28;21501;-74
2021/12/10 08:18:40;;;;;;;36.43;20.50;;;3.70;99.90;;;;;;4995853;28;20663;-74
2021/12/10 08:21:07;;;;;;;36.63;19.83;;;3.70;99.90;;;;;;4996742;28;20648;-74
2021/12/10 08:23:34;;;;;;;38.70;20.83;;;3.70;99.90;;;;;;4997724;28;20201;-74
2021/12/10 08:26:00;;;;;;;41.70;22.47;;;3.70;99.90;;;;;;4995426;28;20629;-74
2021/12/10 08:28:27;;;;;;;40.80;20.57;;;3.70;99.90;;;;;;5017800;28;20620;-74
2021/12/10 08:30:55;;;;;;;39.60;20.83;;;3.70;99.90;;;;;;4997524;28;20688;-75
2021/12/10 08:33:22;;;;;;;37.20;21.67;;;3.80;99.90;;;;;;4999752;28;20659;-74
2021/12/10 08:35:52;;;;;;;35.90;22.00;;;3.70;99.90;;;;;;4997866;28;20684;-75
2021/12/10 08:38:18;;;;;;;34.47;19.83;;;3.70;99.90;;;;;;5000253;28;20712;-75
2021/12/10 08:40:55;;;;;;;40.87;21.47;;;3.70;99.90;;;;;;5001202;28;20613;-74
2021/12/10 08:43:21;;;;;;;38.77;21.53;;;3.70;99.90;;;;;;5013227;28;20640;-74
2021/12/10 08:45:47;;;;;;;37.63;20.67;;;3.80;99.90;;;;;;4993469;28;20621;-74
2021/12/10 08:48:13;;;;;;;36.47;21.10;;;3.80;99.90;;;;;;4989822;28;20949;-75
2021/12/10 08:50:40;;;;;;;36.20;19.90;;;3.80;99.90;;;;;;4994351;28;20694;-75
2021/12/10 08:53:12;;;;;;;42.17;20.97;;;3.80;99.90;;;;;;4996203;28;20201;-75
2021/12/10 08:55:47;;;;;;;41.70;20.83;;;3.80;99.90;;;;;;4998693;28;20593;-75
2021/12/10 08:58:16;;;;;;;35.00;20.33;;;3.90;99.90;;;;;;4996793;28;20643;-74
2021/12/10 09:00:46;;;;;;;34.23;21.33;;;3.90;99.90;;;;;;5013636;28;20679;-74
2021/12/10 09:03:12;;;;;;;39.33;19.63;;;3.90;99.90;;;;;;4994731;28;20634;-74
2021/12/10 09:05:37;;;;;;;37.13;20.90;;;3.90;99.90;;;;;;4997618;28;20625;-74
2021/12/10 09:08:08;;;;;;;35.53;22.00;;;3.90;99.90;;;;;;4992628;28;20682;-74
2021/12/10 09:13:01;;;;;;;36.87;19.50;;;3.80;99.90;;;;;;4997166;28;20677;-74
2021/12/10 09:15:28;;;;;;;35.00;19.10;;;3.90;99.90;;;;;;4999417;28;20656;-73
2021/12/10 09:17:58;;;;;;;35.40;19.87;;;3.90;99.90;;;;;;5000479;28;20742;-75
2021/12/10 09:20:30;;;;;;;34.30;19.20;;;4.00;99.90;;;;;;4997084;28;20748;-74
2021/12/10 09:22:56;;;;;;;34.67;18.63;;;3.90;99.90;;;;;;5004074;28;21059;-74
2021/12/10 09:25:22;;;;;;;36.70;19.80;;;4.00;99.90;;;;;;5002391;28;20620;-75
2021/12/10 09:27:48;;;;;;;35.20;18.60;;;4.00;99.90;;;;;;4999467;28;20655;-74
2021/12/10 09:30:19;;;;;;;34.70;18.67;;;3.90;99.90;;;;;;4995395;28;20371;-74
2021/12/10 09:32:45;;;;;;;31.93;17.63;;;4.00;99.90;;;;;;4993609;28;20675;-73
2021/12/10 09:35:13;;;;;;;33.70;18.70;;;4.00;99.90;;;;;;4993868;28;21014;-73
2021/12/10 09:37:40;;;;;;;36.33;18.80;;;4.00;99.90;;;;;;4998719;28;20656;-74
2021/12/10 09:40:13;;;;;;;33.70;20.20;;;4.10;99.90;;;;;;4994544;28;21043;-74
2021/12/10 09:42:39;;;;;;;27.67;17.27;;;4.10;99.90;;;;;;4999143;28;20670;-74
2021/12/10 09:45:06;;;;;;;32.60;17.80;;;4.10;99.90;;;;;;4995209;28;20743;-74
2021/12/10 09:47:32;;;;;;;31.70;17.97;;;4.10;99.90;;;;;;4993364;28;20748;-74
2021/12/10 09:49:59;;;;;;;33.13;19.70;;;4.10;99.90;;;;;;4997774;28;21246;-75
2021/12/10 09:52:28;;;;;;;33.40;17.20;;;4.10;99.90;;;;;;5001788;28;20189;-75
2021/12/10 09:54:54;;;;;;;34.33;19.13;;;4.10;99.90;;;;;;4998492;28;21225;-74
2021/12/10 09:57:24;;;;;;;29.40;17.70;;;4.20;99.90;;;;;;4994991;28;21071;-74
2021/12/10 09:59:52;;;;;;;33.77;17.83;;;4.20;99.90;;;;;;4996058;28;20687;-75
2021/12/10 10:02:21;;;;;;;30.53;17.37;;;4.20;99.90;;;;;;5000091;28;20616;-74
2021/12/10 10:04:49;;;;;;;31.07;17.77;;;4.30;99.90;;;;;;4999007;28;20669;-74
2021/12/10 10:07:22;;;;;;;33.20;18.67;;;4.30;99.90;;;;;;4995199;28;20644;-75
2021/12/10 10:09:51;;;;;;;31.27;18.50;;;4.30;99.90;;;;;;4995119;28;20648;-75
2021/12/10 10:12:21;;;;;;;32.50;18.50;;;4.40;99.90;;;;;;5005501;28;20653;-74
2021/12/10 10:14:50;;;;;;;31.13;18.07;;;4.40;99.90;;;;;;5004690;28;20686;-74
2021/12/10 10:17:20;;;;;;;29.03;17.43;;;4.40;99.90;;;;;;5004245;28;21019;-74
2021/12/10 10:19:46;;;;;;;30.70;17.67;;;4.40;99.90;;;;;;5006239;28;20648;-74
2021/12/10 10:22:16;;;;;;;29.30;18.83;;;4.50;99.90;;;;;;5006309;28;20631;-75
2021/12/10 10:24:45;;;;;;;28.93;16.40;;;4.50;99.90;;;;;;5007788;28;21160;-75
2021/12/10 10:27:21;;;;;;;32.90;16.23;;;4.50;99.90;;;;;;5011398;28;21089;-74
2021/12/10 10:29:55;;;;;;;25.97;16.13;;;4.50;99.90;;;;;;5006680;28;20679;-74
2021/12/10 10:32:26;;;;;;;29.67;16.37;;;4.60;99.90;;;;;;5010087;28;20599;-74
2021/12/10 10:34:58;;;;;;;33.23;16.83;;;4.60;99.90;;;;;;5016154;28;20639;-74
2021/12/10 10:37:24;;;;;;;26.20;15.43;;;4.60;99.90;;;;;;5011568;28;20636;-74
2021/12/10 10:39:51;;;;;;;27.30;15.97;;;4.60;99.90;;;;;;5008464;28;20666;-74
2021/12/10 10:42:21;;;;;;;26.50;15.20;;;4.70;99.90;;;;;;5006465;28;21187;-74
2021/12/10 10:44:47;;;;;;;30.27;16.00;;;4.70;99.90;;;;;;5009999;28;20643;-74
2021/12/10 10:47:14;;;;;;;31.30;17.50;;;4.70;99.90;;;;;;5009842;28;20644;-74
2021/12/10 10:49:54;;;;;;;27.60;15.53;;;4.70;99.90;;;;;;5003428;28;20656;-74
2021/12/10 10:52:29;;;;;;;30.33;15.83;;;4.80;99.90;;;;;;5009233;28;20747;-73
2021/12/10 10:55:08;;;;;;;27.37;16.47;;;4.80;99.90;;;;;;5008595;28;20631;-75
2021/12/10 10:57:34;;;;;;;27.10;14.63;;;4.80;99.90;;;;;;5009325;28;20661;-75
2021/12/10 11:00:14;;;;;;;29.27;15.60;;;4.80;99.90;;;;;;5008000;28;20655;-74
2021/12/10 11:02:53;;;;;;;29.00;16.07;;;4.90;99.90;;;;;;5007877;28;20212;-76
2021/12/10 11:05:22;;;;;;;28.20;16.67;;;4.90;99.90;;;;;;5009179;28;21213;-75
2021/12/10 11:07:51;;;;;;;26.70;15.90;;;4.90;99.90;;;;;;5013550;28;20958;-75
2021/12/10 11:10:31;;;;;;;25.17;15.23;;;4.90;99.90;;;;;;5007401;28;20662;-75
2021/12/10 11:13:14;;;;;;;26.20;14.60;;;4.90;99.90;;;;;;5008638;28;20667;-74
2021/12/10 11:15:58;;;;;;;27.20;15.10;;;4.90;99.90;;;;;;5005949;28;20718;-74
2021/12/10 11:18:24;;;;;;;24.30;15.30;;;4.90;99.90;;;;;;5006328;28;21180;-75
2021/12/10 11:20:50;;;;;;;28.17;16.33;;;4.90;99.90;;;;;;5007165;28;20699;-75
2021/12/10 11:23:19;;;;;;;28.20;17.03;;;4.90;99.90;;;;;;5009808;28;20612;-75
2021/12/10 11:25:50;;;;;;;25.90;14.60;;;5.00;99.90;;;;;;5006741;28;20254;-74
2021/12/10 11:28:33;;;;;;;26.43;16.07;;;5.10;99.90;;;;;;5007576;28;20608;-75
2021/12/10 11:31:09;;;;;;;26.03;15.60;;;5.00;99.90;;;;;;5004568;28;21250;-75
2021/12/10 11:33:41;;;;;;;22.93;14.60;;;5.10;99.90;;;;;;5005401;28;20698;-75
2021/12/10 11:36:23;;;;;;;27.97;15.53;;;5.10;99.90;;;;;;5007880;28;20739;-75
2021/12/10 11:38:55;;;;;;;25.20;16.07;;;5.10;99.90;;;;;;5022867;28;20771;-73
2021/12/10 11:41:25;;;;;;;27.87;15.63;;;5.10;99.90;;;;;;5008947;28;20589;-73
2021/12/10 11:44:07;;;;;;;25.93;15.13;;;5.20;99.90;;;;;;5005368;28;20632;-74
2021/12/10 11:47:13;;;;;;;27.43;16.03;;;5.20;99.90;;;;;;4997617;28;20648;-75
2021/12/10 11:49:39;;;;;;;28.50;16.20;;;5.20;99.90;;;;;;5001130;28;20682;-75
2021/12/10 11:52:15;;;;;;;25.33;15.07;;;5.20;99.90;;;;;;5001472;28;20699;-73
2021/12/10 11:54:54;;;;;;;25.37;15.07;;;5.30;99.90;;;;;;4998035;28;21026;-73
2021/12/10 11:57:42;;;;;;;27.50;15.50;;;5.30;99.90;;;;;;4997935;28;20655;-73
2021/12/10 12:00:19;;;;;;;26.30;15.43;;;5.30;99.90;;;;;;5003462;28;20743;-73
2021/12/10 12:02:53;;;;;;;29.67;16.67;;;5.30;99.90;;;;;;5005735;28;21068;-73
2021/12/10 12:05:23;;;;;;;27.20;17.10;;;5.30;99.90;;;;;;5007296;28;20994;-73
2021/12/10 12:08:04;;;;;;;24.23;14.73;;;5.30;99.90;;;;;;5006139;28;20636;-72
2021/12/10 12:10:43;;;;;;;26.60;18.23;;;5.30;99.90;;;;;;4998462;28;20648;-74
2021/12/10 12:13:23;;;;;;;28.50;15.97;;;5.30;99.90;;;;;;4997275;28;20866;-73
2021/12/10 12:15:59;;;;;;;27.87;16.27;;;5.30;99.90;;;;;;4998780;28;20632;-73
2021/12/10 12:18:31;;;;;;;29.73;17.40;;;5.30;99.90;;;;;;4997286;28;23102;-74
2021/12/10 12:27:12;;;;;;;27.90;16.30;;;5.30;99.90;;;;;;5011704;28;20831;-73
2021/12/10 12:29:52;;;;;;;28.23;16.97;;;5.20;99.90;;;;;;5005800;28;20652;-74
2021/12/10 12:32:24;;;;;;;28.07;15.90;;;5.20;99.90;;;;;;4998713;28;20735;-74
2021/12/10 12:34:50;;;;;;;26.80;15.77;;;5.20;99.90;;;;;;4999185;28;21330;-73
2021/12/10 12:37:20;;;;;;;25.40;16.33;;;5.20;99.90;;;;;;4999961;28;20671;-74
2021/12/10 12:40:06;;;;;;;25.43;15.23;;;5.20;99.90;;;;;;4998188;28;21783;-75
2021/12/10 12:42:46;;;;;;;27.23;15.57;;;5.20;99.90;;;;;;4994039;28;20621;-73
2021/12/10 12:45:15;;;;;;;26.63;15.30;;;5.20;99.90;;;;;;4998174;28;21325;-74
2021/12/10 12:47:48;;;;;;;32.00;17.07;;;5.30;99.90;;;;;;4995923;28;20678;-74
2021/12/10 12:50:26;;;;;;;28.10;15.90;;;5.30;99.90;;;;;;4996067;28;20709;-74
2021/12/10 12:52:59;;;;;;;26.73;16.00;;;5.30;99.90;;;;;;4995123;28;20624;-75
2021/12/10 12:55:37;;;;;;;26.53;16.53;;;5.20;99.90;;;;;;4999379;28;21440;-73
2021/12/10 12:58:38;;;;;;;30.33;16.40;;;5.30;99.90;;;;;;4996795;28;20667;-72
2021/12/10 13:01:16;;;;;;;29.93;16.17;;;5.30;99.90;;;;;;4994910;28;20757;-73
2021/12/10 13:03:48;;;;;;;28.40;16.60;;;5.30;99.90;;;;;;4997940;28;20670;-73
2021/12/10 13:06:16;;;;;;;30.70;17.63;;;5.30;99.90;;;;;;4997403;28;20730;-73